createdAt,value
2019-01-30T00:00:00.805Z,-1.70
2019-01-30T00:02:27.647Z,-1.70
2019-01-30T00:04:54.491Z,-1.90
2019-01-30T00:07:21.336Z,-1.70
2019-01-30T00:09:47.875Z,-1.80
2019-01-30T00:12:14.714Z,-2.00
2019-01-30T00:14:41.558Z,-1.90
2019-01-30T00:17:08.402Z,-2.10
2019-01-30T00:19:35.244Z,-2.20
2019-01-30T00:22:02.089Z,-1.90
2019-01-30T00:24:28.931Z,-1.70
2019-01-30T00:26:57.002Z,-1.60
2019-01-30T00:29:23.845Z,-1.80
2019-01-30T00:31:50.688Z,-1.70
2019-01-30T00:34:17.583Z,-1.60
2019-01-30T00:36:44.376Z,-1.60
2019-01-30T00:39:11.219Z,-1.80
2019-01-30T00:41:38.062Z,-1.80
2019-01-30T00:44:04.639Z,-1.90
2019-01-30T00:46:31.446Z,-1.90
2019-01-30T00:48:58.285Z,-1.90
2019-01-30T00:51:25.128Z,-1.80
2019-01-30T00:53:51.971Z,-1.70
2019-01-30T00:56:18.815Z,-1.70
2019-01-30T00:58:45.965Z,-1.90
2019-01-30T01:01:12.811Z,-1.90
2019-01-30T01:03:39.654Z,-1.80
2019-01-30T01:06:06.495Z,-1.90
2019-01-30T01:08:33.347Z,-1.70
2019-01-30T01:11:00.182Z,-1.60
2019-01-30T01:13:27.025Z,-1.60
2019-01-30T01:15:53.872Z,-1.50
2019-01-30T01:18:21.588Z,-1.50
2019-01-30T01:20:48.784Z,-1.50
2019-01-30T01:23:15.630Z,-1.60
2019-01-30T01:25:43.822Z,-1.60
2019-01-30T01:28:12.386Z,-1.60
2019-01-30T01:30:39.230Z,-1.50
2019-01-30T01:33:06.382Z,-1.50
2019-01-30T01:35:33.225Z,-1.50
2019-01-30T01:38:00.066Z,-1.60
2019-01-30T01:40:26.910Z,-1.60
2019-01-30T01:42:53.753Z,-1.30
2019-01-30T01:45:21.530Z,-1.30
2019-01-30T01:47:48.361Z,-1.40
2019-01-30T01:50:16.130Z,-1.40
2019-01-30T01:52:42.858Z,-1.40
2019-01-30T01:55:10.427Z,-1.40
2019-01-30T01:57:37.006Z,-1.40
2019-01-30T02:00:14.251Z,-1.40
2019-01-30T02:02:41.094Z,-1.30
2019-01-30T02:05:09.474Z,-1.30
2019-01-30T02:07:36.317Z,-1.40
2019-01-30T02:10:04.702Z,-1.40
2019-01-30T02:12:31.541Z,-1.30
2019-01-30T02:14:58.082Z,-1.20
2019-01-30T02:17:25.229Z,-1.10
2019-01-30T02:19:52.070Z,-1.10
2019-01-30T02:22:18.609Z,-1.10
2019-01-30T02:24:45.756Z,-1.10
2019-01-30T02:27:12.599Z,-1.00
2019-01-30T02:29:39.443Z,-1.00
2019-01-30T02:32:06.287Z,-0.90
2019-01-30T02:34:33.130Z,-0.90
2019-01-30T02:36:59.979Z,-0.90
2019-01-30T02:39:27.124Z,-0.80
2019-01-30T02:41:54.277Z,-0.80
2019-01-30T02:44:21.117Z,-0.80
2019-01-30T02:46:48.269Z,-0.80
2019-01-30T02:49:15.111Z,-0.70
2019-01-30T02:51:41.954Z,-0.60
2019-01-30T02:54:09.109Z,-0.60
2019-01-30T02:56:35.949Z,-0.50
2019-01-30T02:59:03.099Z,-0.40
2019-01-30T03:01:29.942Z,-0.50
2019-01-30T03:03:56.786Z,-0.50
2019-01-30T03:06:23.629Z,-0.60
2019-01-30T03:08:50.475Z,-0.60
2019-01-30T03:11:17.317Z,-0.50
2019-01-30T03:13:44.159Z,-0.50
2019-01-30T03:16:11.005Z,-0.50
2019-01-30T03:18:37.845Z,-0.60
2019-01-30T03:21:04.691Z,-0.50
2019-01-30T03:23:31.266Z,-0.50
2019-01-30T03:25:58.069Z,-0.50
2019-01-30T03:28:24.914Z,-0.30
2019-01-30T03:30:51.756Z,-0.40
2019-01-30T03:33:18.599Z,-0.50
2019-01-30T03:35:45.442Z,-0.40
2019-01-30T03:38:12.018Z,-0.40
2019-01-30T03:40:38.821Z,-0.40
2019-01-30T03:43:05.665Z,-0.30
2019-01-30T03:45:32.514Z,-0.40
2019-01-30T03:47:59.354Z,-0.40
2019-01-30T03:50:26.196Z,-0.40
2019-01-30T03:52:52.772Z,-0.40
2019-01-30T03:55:20.187Z,-0.30
2019-01-30T03:57:47.031Z,-0.20
2019-01-30T04:00:16.950Z,-0.40
2019-01-30T04:02:43.797Z,-0.30
2019-01-30T04:05:11.150Z,-0.20
2019-01-30T04:07:38.091Z,-0.30
2019-01-30T04:10:11.386Z,-0.20
2019-01-30T04:12:38.537Z,-0.20
2019-01-30T04:15:07.784Z,-0.20
2019-01-30T04:17:34.680Z,-0.30
2019-01-30T04:20:01.835Z,-0.20
2019-01-30T04:22:28.673Z,-0.20
2019-01-30T04:24:55.517Z,-0.20
2019-01-30T04:27:22.372Z,-0.20
2019-01-30T04:29:49.204Z,-0.20
2019-01-30T04:32:15.783Z,-0.20
2019-01-30T04:34:42.325Z,-0.20
2019-01-30T04:37:09.132Z,-0.10
2019-01-30T04:39:35.961Z,0.00
2019-01-30T04:42:02.806Z,-0.10
2019-01-30T04:44:29.651Z,-0.10
2019-01-30T04:46:56.534Z,-0.20
2019-01-30T04:49:23.335Z,-0.20
2019-01-30T04:51:50.179Z,-0.20
2019-01-30T04:54:17.331Z,-0.20
2019-01-30T04:56:44.173Z,0.00
2019-01-30T04:59:11.017Z,0.10
2019-01-30T05:01:49.264Z,0.20
2019-01-30T05:04:06.562Z,0.10
2019-01-30T05:06:33.389Z,0.10
2019-01-30T05:09:00.233Z,0.10
2019-01-30T05:11:27.076Z,0.10
2019-01-30T05:13:53.919Z,0.10
2019-01-30T05:16:20.762Z,0.20
2019-01-30T05:18:47.606Z,0.20
2019-01-30T05:21:14.756Z,0.20
2019-01-30T05:23:41.599Z,0.10
2019-01-30T05:26:08.751Z,0.10
2019-01-30T05:28:35.901Z,0.20
2019-01-30T05:31:02.751Z,0.20
2019-01-30T05:33:29.895Z,0.30
2019-01-30T05:35:56.737Z,0.30
2019-01-30T05:38:23.588Z,0.40
2019-01-30T05:40:50.424Z,0.50
2019-01-30T05:43:17.584Z,0.40
2019-01-30T05:45:44.732Z,0.40
2019-01-30T05:48:11.877Z,0.30
2019-01-30T05:50:38.723Z,0.40
2019-01-30T05:53:05.565Z,0.50
2019-01-30T05:55:32.715Z,0.60
2019-01-30T05:57:59.556Z,0.40
2019-01-30T06:00:31.317Z,0.50
2019-01-30T06:02:58.467Z,0.50
2019-01-30T06:05:25.556Z,0.40
2019-01-30T06:07:52.470Z,0.40
2019-01-30T06:10:19.611Z,0.30
2019-01-30T06:12:46.452Z,0.20
2019-01-30T06:15:16.062Z,0.20
2019-01-30T06:17:42.904Z,0.20
2019-01-30T06:20:15.585Z,0.50
2019-01-30T06:22:42.429Z,0.80
2019-01-30T06:25:09.839Z,0.50
2019-01-30T06:27:36.731Z,0.60
2019-01-30T06:30:07.258Z,0.60
2019-01-30T06:32:34.412Z,0.40
2019-01-30T06:35:01.423Z,0.30
2019-01-30T06:37:28.404Z,0.30
2019-01-30T06:39:55.246Z,0.60
2019-01-30T06:42:22.092Z,0.60
2019-01-30T06:44:48.932Z,0.50
2019-01-30T06:47:16.085Z,0.40
2019-01-30T06:49:43.234Z,0.40
2019-01-30T06:52:10.077Z,0.40
2019-01-30T06:54:37.227Z,0.70
2019-01-30T06:57:04.078Z,0.80
2019-01-30T06:59:31.221Z,0.80
2019-01-30T07:01:58.065Z,0.90
2019-01-30T07:04:24.908Z,0.90
2019-01-30T07:06:52.060Z,0.90
2019-01-30T07:09:18.902Z,1.00
2019-01-30T07:11:45.745Z,1.00
2019-01-30T07:14:12.896Z,1.00
2019-01-30T07:16:39.741Z,0.90
2019-01-30T07:19:06.583Z,0.90
2019-01-30T07:21:33.427Z,0.90
2019-01-30T07:24:00.269Z,0.80
2019-01-30T07:26:27.112Z,0.80
2019-01-30T07:28:53.957Z,0.90
2019-01-30T07:31:20.800Z,0.90
2019-01-30T07:33:48.061Z,0.90
2019-01-30T07:36:15.101Z,0.90
2019-01-30T07:38:42.254Z,0.90
2019-01-30T07:41:09.094Z,0.90
2019-01-30T07:43:35.937Z,0.90
2019-01-30T07:46:03.087Z,0.90
2019-01-30T07:48:29.931Z,0.90
2019-01-30T07:50:56.773Z,0.70
2019-01-30T07:53:23.924Z,0.70
2019-01-30T07:55:50.767Z,0.70
2019-01-30T07:58:17.918Z,0.70
2019-01-30T08:00:44.783Z,0.70
2019-01-30T08:03:11.605Z,0.70
2019-01-30T08:05:38.449Z,0.70
2019-01-30T08:08:05.294Z,0.70
2019-01-30T08:10:32.134Z,0.90
2019-01-30T08:12:58.983Z,0.80
2019-01-30T08:15:25.822Z,0.70
2019-01-30T08:17:52.984Z,0.70
2019-01-30T08:20:21.303Z,0.90
2019-01-30T08:22:48.832Z,0.90
2019-01-30T08:25:20.563Z,1.00
2019-01-30T08:27:47.779Z,1.00
2019-01-30T08:30:22.687Z,1.10
2019-01-30T08:32:47.088Z,1.00
2019-01-30T08:35:15.834Z,0.90
2019-01-30T08:37:42.771Z,1.10
2019-01-30T08:40:10.767Z,1.30
2019-01-30T08:42:37.526Z,1.30
2019-01-30T08:45:06.067Z,1.40
2019-01-30T08:47:32.908Z,1.50
2019-01-30T08:49:59.754Z,1.50
2019-01-30T08:52:26.596Z,1.40
2019-01-30T08:54:53.133Z,1.40
2019-01-30T08:57:19.669Z,1.40
2019-01-30T08:59:46.512Z,1.60
2019-01-30T09:02:13.113Z,1.60
2019-01-30T09:04:39.893Z,1.60
2019-01-30T09:07:06.739Z,1.60
2019-01-30T09:09:33.583Z,1.70
2019-01-30T09:12:00.422Z,1.90
2019-01-30T09:14:27.265Z,2.00
2019-01-30T09:16:53.842Z,2.00
2019-01-30T09:19:20.644Z,2.10
2019-01-30T09:21:47.486Z,2.20
2019-01-30T09:24:16.189Z,2.20
2019-01-30T09:26:42.709Z,2.10
2019-01-30T09:29:09.558Z,2.20
2019-01-30T09:31:36.397Z,2.20
2019-01-30T09:34:03.239Z,2.20
2019-01-30T09:36:29.833Z,2.20
2019-01-30T09:38:56.926Z,2.30
2019-01-30T09:41:23.788Z,2.30
2019-01-30T09:43:50.613Z,2.30
2019-01-30T09:46:17.148Z,2.60
2019-01-30T09:48:43.992Z,2.70
2019-01-30T09:51:10.582Z,2.60
2019-01-30T09:53:37.427Z,2.70
2019-01-30T09:56:03.959Z,2.70
2019-01-30T09:58:30.751Z,2.80
2019-01-30T10:00:57.594Z,2.90
2019-01-30T10:03:24.437Z,3.00
2019-01-30T10:05:51.283Z,3.10
2019-01-30T10:08:17.858Z,3.20
2019-01-30T10:10:44.660Z,3.30
2019-01-30T10:13:11.504Z,3.40
2019-01-30T10:15:45.113Z,3.50
2019-01-30T10:18:12.702Z,3.60
2019-01-30T10:20:41.907Z,3.80
2019-01-30T10:23:08.708Z,4.00
2019-01-30T10:25:35.649Z,4.20
2019-01-30T10:28:02.438Z,4.30
2019-01-30T10:30:31.080Z,4.30
2019-01-30T10:32:57.924Z,4.50
2019-01-30T10:35:24.767Z,4.60
2019-01-30T10:37:51.917Z,4.60
2019-01-30T10:40:20.297Z,4.70
2019-01-30T10:42:48.278Z,4.90
2019-01-30T10:45:14.905Z,5.10
2019-01-30T10:47:41.749Z,5.20
2019-01-30T10:50:10.127Z,5.30
2019-01-30T10:52:36.971Z,5.30
2019-01-30T10:55:05.350Z,5.30
2019-01-30T10:57:32.193Z,5.40
2019-01-30T11:07:19.263Z,5.20
2019-01-30T11:09:46.103Z,5.40
2019-01-30T11:12:12.953Z,5.40
2019-01-30T11:14:41.012Z,5.40
2019-01-30T11:17:08.741Z,5.20
2019-01-30T11:19:35.626Z,5.30
2019-01-30T11:22:02.469Z,5.40
2019-01-30T11:24:29.314Z,5.20
2019-01-30T11:26:56.255Z,5.30
2019-01-30T11:29:22.999Z,5.40
2019-01-30T11:31:49.843Z,5.50
2019-01-30T11:34:16.608Z,5.50
2019-01-30T11:36:43.222Z,5.30
2019-01-30T11:39:10.066Z,5.40
2019-01-30T11:41:36.911Z,5.50
2019-01-30T11:44:03.752Z,5.60
2019-01-30T11:46:30.595Z,5.60
2019-01-30T11:48:57.440Z,5.60
2019-01-30T11:51:24.282Z,5.50
2019-01-30T11:53:51.126Z,5.60
2019-01-30T11:56:17.969Z,5.60
2019-01-30T11:58:44.546Z,5.60
2019-01-30T12:01:11.350Z,5.60
2019-01-30T12:03:38.081Z,5.60
2019-01-30T12:06:04.728Z,5.70
2019-01-30T12:08:31.572Z,5.50
2019-01-30T12:10:58.406Z,5.50
2019-01-30T12:13:24.990Z,5.50
2019-01-30T12:15:51.794Z,5.60
2019-01-30T12:18:18.633Z,5.50
2019-01-30T12:20:45.483Z,5.50
2019-01-30T12:23:12.324Z,5.60
2019-01-30T12:25:39.054Z,5.50
2019-01-30T12:28:05.702Z,5.60
2019-01-30T12:30:32.546Z,5.50
2019-01-30T12:32:59.084Z,5.40
2019-01-30T12:35:25.926Z,5.50
2019-01-30T12:37:52.509Z,5.50
2019-01-30T12:40:20.227Z,5.50
2019-01-30T12:42:47.070Z,5.50
2019-01-30T12:45:24.359Z,5.50
2019-01-30T12:47:50.942Z,5.30
2019-01-30T12:50:17.738Z,5.40
2019-01-30T12:52:44.582Z,5.40
2019-01-30T12:55:11.426Z,5.40
2019-01-30T12:57:38.002Z,5.40
2019-01-30T13:00:06.345Z,5.40
2019-01-30T13:02:33.184Z,5.40
2019-01-30T13:05:00.027Z,5.40
2019-01-30T13:07:26.870Z,5.50
2019-01-30T13:09:53.447Z,5.40
2019-01-30T13:12:20.250Z,5.30
2019-01-30T13:14:46.786Z,5.30
2019-01-30T13:17:13.322Z,5.30
2019-01-30T13:19:40.165Z,5.30
2019-01-30T13:22:07.008Z,5.20
2019-01-30T13:24:35.743Z,5.20
2019-01-30T13:27:03.770Z,5.30
2019-01-30T13:29:30.449Z,5.30
2019-01-30T13:31:57.159Z,5.40
2019-01-30T13:34:23.682Z,5.40
2019-01-30T13:36:50.264Z,5.30
2019-01-30T13:39:17.062Z,5.40
2019-01-30T13:41:43.910Z,5.20
2019-01-30T13:44:10.753Z,5.20
2019-01-30T13:46:37.331Z,5.10
2019-01-30T13:49:03.931Z,5.10
2019-01-30T13:51:30.665Z,5.00
2019-01-30T13:53:57.533Z,4.90
2019-01-30T13:56:24.371Z,5.00
2019-01-30T13:58:51.194Z,5.00
2019-01-30T14:01:18.094Z,4.90
2019-01-30T14:03:44.903Z,4.80
2019-01-30T14:06:11.724Z,4.80
2019-01-30T14:08:38.572Z,4.80
2019-01-30T14:11:05.411Z,4.80
2019-01-30T14:13:32.028Z,4.80
2019-01-30T14:15:58.795Z,4.80
2019-01-30T14:18:25.634Z,4.90
2019-01-30T14:20:52.211Z,4.90
2019-01-30T14:23:19.013Z,4.80
2019-01-30T14:25:45.856Z,4.70
2019-01-30T14:28:12.702Z,4.60
2019-01-30T14:30:39.639Z,4.60
2019-01-30T14:33:06.694Z,4.60
2019-01-30T14:35:33.886Z,4.50
2019-01-30T14:38:00.466Z,4.40
2019-01-30T14:40:27.242Z,4.30
2019-01-30T14:42:54.098Z,4.30
2019-01-30T14:45:21.572Z,4.40
2019-01-30T14:47:49.822Z,4.30
2019-01-30T14:50:19.512Z,4.30
2019-01-30T14:52:46.662Z,4.30
2019-01-30T14:55:14.404Z,4.20
2019-01-30T14:57:41.310Z,4.30
2019-01-30T15:00:11.816Z,4.30
2019-01-30T15:02:38.994Z,4.30
2019-01-30T15:05:09.514Z,4.20
2019-01-30T15:07:36.366Z,4.20
2019-01-30T15:10:06.891Z,4.20
2019-01-30T15:12:34.057Z,4.20
2019-01-30T15:15:00.900Z,4.20
2019-01-30T15:17:27.734Z,4.20
2019-01-30T15:19:54.884Z,4.20
2019-01-30T15:22:21.686Z,4.10
2019-01-30T15:24:48.528Z,4.10
2019-01-30T15:27:15.679Z,4.00
2019-01-30T15:29:42.523Z,4.00
2019-01-30T15:32:09.366Z,4.00
2019-01-30T15:34:36.516Z,4.00
2019-01-30T15:37:03.667Z,3.90
2019-01-30T15:39:30.512Z,3.90
2019-01-30T15:41:57.354Z,3.80
2019-01-30T15:44:24.504Z,3.80
2019-01-30T15:46:51.655Z,3.90
2019-01-30T15:49:18.806Z,3.70
2019-01-30T15:51:45.955Z,3.70
2019-01-30T15:54:12.799Z,3.60
2019-01-30T15:56:39.642Z,3.60
2019-01-30T15:59:07.646Z,3.50
2019-01-30T16:01:34.558Z,3.50
2019-01-30T16:04:01.404Z,3.50
2019-01-30T16:06:28.286Z,3.50
2019-01-30T16:08:55.090Z,3.40
2019-01-30T16:11:21.932Z,3.40
2019-01-30T16:13:49.085Z,3.40
2019-01-30T16:16:15.931Z,3.30
2019-01-30T16:18:42.768Z,3.30
2019-01-30T16:21:09.655Z,3.30
2019-01-30T16:23:36.458Z,3.20
2019-01-30T16:26:03.547Z,3.10
2019-01-30T16:28:30.287Z,3.20
2019-01-30T16:30:57.293Z,3.10
2019-01-30T16:33:24.442Z,3.10
2019-01-30T16:35:56.078Z,3.00
2019-01-30T16:38:19.358Z,2.90
2019-01-30T16:40:46.201Z,2.80
2019-01-30T16:43:13.147Z,2.80
2019-01-30T16:45:40.502Z,2.90
2019-01-30T16:48:07.960Z,2.90
2019-01-30T16:50:34.846Z,2.90
2019-01-30T16:53:01.689Z,3.00
2019-01-30T16:55:28.490Z,3.00
2019-01-30T16:57:56.562Z,3.00
2019-01-30T17:00:34.710Z,3.00
2019-01-30T17:03:07.452Z,3.00
2019-01-30T17:05:34.882Z,2.90
2019-01-30T17:08:01.759Z,2.90
2019-01-30T17:10:28.597Z,2.90
2019-01-30T17:12:55.747Z,2.80
2019-01-30T17:15:34.170Z,2.80
2019-01-30T17:18:01.109Z,2.80
2019-01-30T17:20:30.408Z,2.80
2019-01-30T17:22:57.251Z,2.80
2019-01-30T17:25:24.714Z,2.70
2019-01-30T17:27:51.552Z,2.60
2019-01-30T17:30:24.847Z,2.50
2019-01-30T17:32:52.009Z,2.60
2019-01-30T17:35:18.842Z,2.60
2019-01-30T17:37:45.684Z,2.60
2019-01-30T17:40:22.384Z,2.60
2019-01-30T17:42:49.202Z,2.50
2019-01-30T17:45:16.352Z,2.40
2019-01-30T17:47:43.505Z,2.30
2019-01-30T17:50:22.944Z,2.20
2019-01-30T17:52:52.206Z,2.20
2019-01-30T17:55:19.088Z,2.20
2019-01-30T17:57:45.928Z,2.10
2019-01-30T18:00:26.904Z,2.10
2019-01-30T18:02:53.748Z,1.90
2019-01-30T18:05:20.723Z,1.60
2019-01-30T18:07:47.741Z,1.70
2019-01-30T18:10:17.774Z,1.70
2019-01-30T18:12:43.885Z,1.70
2019-01-30T18:15:12.430Z,1.60
2019-01-30T18:17:39.414Z,1.60
2019-01-30T18:20:12.712Z,1.50
2019-01-30T18:22:39.555Z,1.30
2019-01-30T18:25:10.085Z,1.10
2019-01-30T18:27:36.926Z,1.00
2019-01-30T18:30:07.455Z,0.90
2019-01-30T18:32:34.298Z,0.90
2019-01-30T18:35:01.142Z,0.70
2019-01-30T18:37:28.293Z,0.80
2019-01-30T18:39:55.137Z,0.80
2019-01-30T18:42:24.213Z,0.60
2019-01-30T18:44:51.615Z,0.50
2019-01-30T18:47:18.431Z,0.50
2019-01-30T18:49:45.277Z,0.40
2019-01-30T18:52:12.425Z,0.30
2019-01-30T18:54:39.577Z,0.20
2019-01-30T18:57:06.422Z,0.20
2019-01-30T18:59:33.262Z,0.20
2019-01-30T19:02:00.104Z,0.10
2019-01-30T19:04:26.948Z,0.20
2019-01-30T19:06:53.795Z,0.30
2019-01-30T19:09:20.944Z,0.40
2019-01-30T19:11:47.785Z,0.40
2019-01-30T19:14:14.629Z,0.50
2019-01-30T19:16:41.515Z,0.60
2019-01-30T19:19:08.323Z,0.50
2019-01-30T19:21:35.159Z,0.50
2019-01-30T19:24:02.012Z,0.50
2019-01-30T19:26:28.851Z,0.40
2019-01-30T19:28:55.688Z,0.40
2019-01-30T19:31:22.840Z,0.20
2019-01-30T19:33:49.683Z,0.30
2019-01-30T19:36:16.526Z,0.20
2019-01-30T19:38:43.708Z,0.20
2019-01-30T19:41:10.519Z,0.30
2019-01-30T19:43:37.362Z,0.10
2019-01-30T19:46:04.206Z,0.20
2019-01-30T19:48:31.048Z,0.00
2019-01-30T19:50:58.200Z,0.10
2019-01-30T19:53:25.354Z,0.00
2019-01-30T19:55:52.206Z,-0.10
2019-01-30T19:58:19.345Z,-0.10
2019-01-30T20:00:46.153Z,-0.20
2019-01-30T20:03:15.735Z,-0.20
2019-01-30T20:05:43.298Z,-0.30
2019-01-30T20:08:10.096Z,-0.20
2019-01-30T20:10:37.016Z,-0.20
2019-01-30T20:13:04.398Z,-0.30
2019-01-30T20:15:31.551Z,-0.50
2019-01-30T20:17:58.393Z,-0.50
2019-01-30T20:20:25.235Z,-0.50
2019-01-30T20:22:51.810Z,-0.40
2019-01-30T20:25:20.150Z,-0.40
2019-01-30T20:27:47.034Z,-0.50
2019-01-30T20:30:15.681Z,-0.60
2019-01-30T20:32:42.259Z,-0.60
2019-01-30T20:35:09.368Z,-0.70
2019-01-30T20:37:37.683Z,-0.70
2019-01-30T20:40:06.125Z,-0.80
2019-01-30T20:42:33.015Z,-0.70
2019-01-30T20:44:59.812Z,-0.80
2019-01-30T20:47:26.661Z,-0.70
2019-01-30T20:49:53.235Z,-0.70
2019-01-30T20:52:20.034Z,-0.70
2019-01-30T20:54:46.877Z,-0.80
2019-01-30T20:57:13.458Z,-0.80
2019-01-30T20:59:40.257Z,-0.80
2019-01-30T21:02:07.100Z,-0.90
2019-01-30T21:04:33.678Z,-0.90
2019-01-30T21:07:00.479Z,-1.00
2019-01-30T21:09:27.323Z,-1.10
2019-01-30T21:11:54.493Z,-1.00
2019-01-30T21:14:21.319Z,-1.00
2019-01-30T21:16:48.160Z,-1.20
2019-01-30T21:19:14.743Z,-1.10
2019-01-30T21:21:41.541Z,-1.00
2019-01-30T21:24:08.118Z,-1.00
2019-01-30T21:26:34.920Z,-1.00
2019-01-30T21:29:01.770Z,-1.00
2019-01-30T21:31:28.606Z,-1.00
2019-01-30T21:33:55.183Z,-1.00
2019-01-30T21:36:21.986Z,-1.10
2019-01-30T21:38:48.829Z,-1.10
2019-01-30T21:41:15.672Z,-1.10
2019-01-30T21:43:42.525Z,-1.10
2019-01-30T21:46:09.358Z,-1.20
2019-01-30T21:48:35.938Z,-1.30
2019-01-30T21:51:02.738Z,-1.30
2019-01-30T21:53:29.581Z,-1.30
2019-01-30T21:58:23.718Z,-1.40
2019-01-30T22:00:50.419Z,-1.50
2019-01-30T22:03:16.958Z,-1.70
2019-01-30T22:05:43.798Z,-1.60
2019-01-30T22:08:10.641Z,-1.50
2019-01-30T22:10:37.218Z,-1.50
2019-01-30T22:13:04.021Z,-1.50
2019-01-30T22:15:31.102Z,-1.60
2019-01-30T22:17:58.014Z,-1.60
2019-01-30T22:20:25.167Z,-1.70
2019-01-30T22:22:52.328Z,-1.80
2019-01-30T22:25:20.835Z,-1.80
2019-01-30T22:27:47.538Z,-1.80
2019-01-30T22:30:18.902Z,-1.70
2019-01-30T22:32:45.833Z,-1.80
2019-01-30T22:35:12.676Z,-1.60
2019-01-30T22:37:39.521Z,-1.70
2019-01-30T22:42:41.647Z,-1.90
2019-01-30T22:45:09.718Z,-1.90
2019-01-30T22:47:36.562Z,-1.90
2019-01-30T22:50:04.680Z,-2.00
2019-01-30T22:52:31.479Z,-2.00
2019-01-30T22:54:58.056Z,-2.00
2019-01-30T22:57:24.856Z,-2.00
2019-01-30T22:59:51.434Z,-2.00
2019-01-30T23:02:19.506Z,-1.90
2019-01-30T23:04:47.847Z,-1.90
2019-01-30T23:07:16.224Z,-1.80
2019-01-30T23:09:53.786Z,-1.80
2019-01-30T23:12:40.632Z,-1.80
2019-01-30T23:15:14.848Z,-1.80
2019-01-30T23:17:43.227Z,-1.90
2019-01-30T23:20:11.238Z,-2.00
2019-01-30T23:22:39.678Z,-2.00
2019-01-30T23:25:14.201Z,-2.10
2019-01-30T23:27:42.888Z,-2.10
2019-01-30T23:30:20.176Z,-2.00
2019-01-30T23:32:51.627Z,-2.00
2019-01-30T23:35:26.458Z,-2.20
2019-01-30T23:37:54.734Z,-2.30
2019-01-30T23:40:26.289Z,-2.30
2019-01-30T23:43:11.565Z,-2.40
2019-01-30T23:45:42.708Z,-2.40
2019-01-30T23:48:26.449Z,-2.40
2019-01-30T23:50:57.592Z,-2.40
2019-01-30T23:53:41.332Z,-2.50
2019-01-30T23:56:09.711Z,-2.60
2019-01-30T23:58:54.990Z,-2.60
